createdAt,value
2022-12-09T00:03:41.842Z,3.70
2022-12-09T00:08:44.324Z,3.70
2022-12-09T00:13:50.220Z,3.70
2022-12-09T00:18:52.489Z,3.70
2022-12-09T00:23:55.735Z,3.70
2022-12-09T00:28:58.317Z,3.80
2022-12-09T00:34:03.551Z,3.80
2022-12-09T00:39:05.408Z,3.80
2022-12-09T00:44:07.337Z,3.70
2022-12-09T00:49:11.007Z,3.70
2022-12-09T00:54:12.996Z,3.80
2022-12-09T00:59:14.790Z,3.70
2022-12-09T01:04:17.345Z,3.70
2022-12-09T01:09:19.254Z,3.60
2022-12-09T01:14:21.244Z,3.60
2022-12-09T01:19:23.067Z,3.60
2022-12-09T01:24:24.770Z,3.60
2022-12-09T01:29:26.519Z,3.60
2022-12-09T01:34:28.273Z,3.60
2022-12-09T01:39:29.998Z,3.60
2022-12-09T01:44:33.937Z,3.50
2022-12-09T01:49:42.452Z,3.50
2022-12-09T01:54:45.969Z,3.50
2022-12-09T01:59:48.018Z,3.30
2022-12-09T02:04:50.784Z,3.20
2022-12-09T02:09:53.516Z,3.20
2022-12-09T02:15:09.637Z,3.20
2022-12-09T02:20:23.179Z,3.20
2022-12-09T02:25:42.172Z,3.10
2022-12-09T02:31:22.640Z,3.10
2022-12-09T02:36:29.015Z,3.00
2022-12-09T02:41:35.530Z,3.00
2022-12-09T02:46:39.646Z,3.00
2022-12-09T02:51:44.252Z,3.00
2022-12-09T02:56:53.496Z,3.00
2022-12-09T03:02:20.000Z,2.90
2022-12-09T03:07:24.695Z,2.90
2022-12-09T03:12:33.163Z,2.90
2022-12-09T03:17:37.005Z,3.00
2022-12-09T03:22:43.505Z,3.00
2022-12-09T03:27:48.119Z,3.00
2022-12-09T03:32:51.056Z,3.00
2022-12-09T03:37:53.897Z,3.00
2022-12-09T03:43:07.215Z,3.00
2022-12-09T03:48:10.940Z,3.10
2022-12-09T03:53:19.871Z,3.10
2022-12-09T03:58:21.938Z,3.20
2022-12-09T04:03:23.791Z,3.30
2022-12-09T04:08:25.948Z,3.30
2022-12-09T04:13:27.694Z,3.30
2022-12-09T04:18:29.769Z,3.30
2022-12-09T04:23:31.667Z,3.30
2022-12-09T04:28:33.617Z,3.20
2022-12-09T04:33:35.275Z,3.10
2022-12-09T04:38:37.081Z,3.10
2022-12-09T04:43:38.915Z,3.10
2022-12-09T04:48:41.241Z,3.10
2022-12-09T04:53:43.431Z,3.10
2022-12-09T04:58:45.616Z,3.00
2022-12-09T05:03:54.285Z,2.80
2022-12-09T05:08:56.499Z,2.70
2022-12-09T05:13:58.534Z,2.60
2022-12-09T05:19:00.647Z,2.50
2022-12-09T05:24:03.240Z,2.50
2022-12-09T05:29:05.322Z,2.60
2022-12-09T05:34:07.714Z,2.70
2022-12-09T05:39:09.967Z,2.70
2022-12-09T05:44:12.293Z,2.80
2022-12-09T05:49:14.461Z,2.80
2022-12-09T05:54:16.498Z,2.80
2022-12-09T05:59:18.434Z,2.80
2022-12-09T06:04:20.330Z,2.80
2022-12-09T06:09:22.646Z,2.90
2022-12-09T06:14:24.703Z,3.00
2022-12-09T06:19:26.771Z,3.00
2022-12-09T06:24:28.660Z,3.00
2022-12-09T06:29:30.724Z,3.10
2022-12-09T06:34:32.806Z,3.10
2022-12-09T06:39:34.814Z,3.10
2022-12-09T06:44:37.277Z,3.00
2022-12-09T06:49:39.266Z,3.10
2022-12-09T06:54:41.388Z,3.20
2022-12-09T06:59:43.485Z,3.20
2022-12-09T07:04:45.414Z,3.20
2022-12-09T07:09:47.908Z,3.30
2022-12-09T07:14:49.782Z,3.50
2022-12-09T07:19:51.915Z,3.50
2022-12-09T07:24:54.148Z,3.50
2022-12-09T07:29:57.327Z,3.50
2022-12-09T07:34:59.475Z,3.50
2022-12-09T07:40:01.839Z,3.70
2022-12-09T07:45:04.543Z,3.60
2022-12-09T07:50:07.638Z,3.60
2022-12-09T07:55:10.607Z,3.60
2022-12-09T08:00:13.471Z,3.70
2022-12-09T08:05:16.158Z,3.70
2022-12-09T08:10:18.312Z,3.60
2022-12-09T08:15:20.870Z,3.50
2022-12-09T08:20:28.784Z,3.50
2022-12-09T08:25:31.541Z,3.50
2022-12-09T08:30:33.599Z,3.50
2022-12-09T08:35:38.010Z,3.60
2022-12-09T08:40:40.186Z,3.60
2022-12-09T08:45:42.390Z,3.50
2022-12-09T08:50:44.693Z,3.60
2022-12-09T08:55:47.008Z,3.70
2022-12-09T09:00:49.003Z,3.70
2022-12-09T09:05:51.310Z,3.70
2022-12-09T09:10:53.569Z,3.70
2022-12-09T09:15:55.592Z,3.90
2022-12-09T09:20:59.597Z,4.10
2022-12-09T09:26:03.357Z,4.20
2022-12-09T09:31:07.538Z,4.10
2022-12-09T09:36:13.604Z,4.10
2022-12-09T09:41:40.175Z,4.00
2022-12-09T09:46:46.116Z,4.00
2022-12-09T09:51:48.497Z,4.10
2022-12-09T09:56:58.742Z,3.90
2022-12-09T10:02:12.913Z,4.00
2022-12-09T10:07:29.148Z,4.20
2022-12-09T10:13:06.938Z,4.10
2022-12-09T10:18:11.462Z,4.20
2022-12-09T10:23:15.919Z,4.00
2022-12-09T10:28:22.728Z,4.30
2022-12-09T10:33:35.357Z,4.20
2022-12-09T10:38:41.179Z,4.20
2022-12-09T10:43:44.171Z,3.90
2022-12-09T10:48:50.240Z,4.20
2022-12-09T10:54:10.853Z,4.00
2022-12-09T10:59:32.147Z,4.00
2022-12-09T11:04:38.614Z,3.90
2022-12-09T11:09:59.013Z,4.10
2022-12-09T11:15:30.488Z,4.20
2022-12-09T11:20:34.605Z,3.90
2022-12-09T11:25:37.719Z,4.00
2022-12-09T11:36:29.801Z,4.00
2022-12-09T11:41:51.551Z,4.20
2022-12-09T11:47:13.189Z,4.30
2022-12-09T11:52:17.804Z,4.60
2022-12-09T11:57:33.112Z,4.40
2022-12-09T12:02:44.660Z,4.10
2022-12-09T12:08:01.986Z,4.00
2022-12-09T12:13:24.867Z,3.90
2022-12-09T12:18:32.655Z,4.00
2022-12-09T12:23:57.446Z,3.80
2022-12-09T12:29:38.257Z,3.80
2022-12-09T12:34:39.891Z,3.80
2022-12-09T12:40:02.978Z,3.60
2022-12-09T12:45:26.578Z,3.70
2022-12-09T12:50:40.125Z,3.90
2022-12-09T12:56:05.011Z,3.80
2022-12-09T13:01:19.214Z,3.80
2022-12-09T13:06:30.509Z,3.90
2022-12-09T13:11:39.479Z,4.10
2022-12-09T13:16:43.560Z,3.90
2022-12-09T13:21:46.389Z,3.80
2022-12-09T13:27:05.499Z,3.70
2022-12-09T13:32:43.979Z,3.80
2022-12-09T13:37:45.593Z,3.70
2022-12-09T13:43:03.557Z,3.60
2022-12-09T13:48:16.556Z,3.70
2022-12-09T13:53:19.024Z,3.60
2022-12-09T13:58:41.061Z,3.50
2022-12-09T14:04:13.629Z,3.70
2022-12-09T14:09:44.779Z,3.50
2022-12-09T14:15:01.545Z,3.50
2022-12-09T14:20:19.185Z,3.50
2022-12-09T14:25:28.288Z,3.60
2022-12-09T14:30:29.928Z,3.60
2022-12-09T14:35:49.065Z,3.30
2022-12-09T14:41:05.747Z,3.50
2022-12-09T14:46:32.770Z,3.30
2022-12-09T14:51:38.703Z,3.50
2022-12-09T14:56:46.670Z,3.50
2022-12-09T15:01:56.345Z,3.50
2022-12-09T15:07:20.956Z,3.30
2022-12-09T15:12:34.736Z,3.40
2022-12-09T15:17:43.580Z,3.40
2022-12-09T15:22:53.850Z,3.40
2022-12-09T15:28:05.147Z,3.10
2022-12-09T15:33:14.048Z,3.20
2022-12-09T15:38:16.067Z,3.40
2022-12-09T15:43:17.830Z,3.20
2022-12-09T15:48:23.509Z,3.30
2022-12-09T15:53:30.748Z,3.30
2022-12-09T15:58:38.917Z,3.40
2022-12-09T16:03:40.781Z,3.50
2022-12-09T16:08:45.398Z,3.40
2022-12-09T16:14:00.697Z,3.20
2022-12-09T16:19:02.414Z,3.40
2022-12-09T16:24:23.282Z,3.40
2022-12-09T16:29:32.766Z,3.20
2022-12-09T16:34:34.453Z,3.10
2022-12-09T16:39:40.484Z,3.20
2022-12-09T16:44:42.370Z,3.10
2022-12-09T16:49:48.470Z,3.10
2022-12-09T16:54:50.803Z,3.20
2022-12-09T16:59:53.511Z,3.10
2022-12-09T17:04:55.354Z,3.10
2022-12-09T17:09:57.047Z,3.20
2022-12-09T17:14:58.681Z,3.10
2022-12-09T17:20:00.491Z,3.00
2022-12-09T17:25:02.421Z,3.00
2022-12-09T17:30:05.212Z,3.00
2022-12-09T17:35:12.316Z,3.00
2022-12-09T17:40:14.345Z,3.00
2022-12-09T17:45:16.033Z,2.90
2022-12-09T17:50:17.821Z,2.90
2022-12-09T17:55:19.559Z,3.00
2022-12-09T18:00:21.348Z,3.00
2022-12-09T18:05:23.088Z,3.10
2022-12-09T18:10:24.925Z,3.10
2022-12-09T18:15:27.304Z,3.00
2022-12-09T18:20:28.991Z,3.10
2022-12-09T18:25:30.727Z,3.10
2022-12-09T18:30:32.627Z,3.00
2022-12-09T18:35:34.675Z,3.10
2022-12-09T18:40:59.642Z,3.10
2022-12-09T18:46:07.397Z,3.00
2022-12-09T18:51:21.125Z,3.10
2022-12-09T18:56:23.001Z,3.20
2022-12-09T19:01:30.137Z,3.10
2022-12-09T19:06:35.456Z,3.20
2022-12-09T19:11:38.758Z,3.20
2022-12-09T19:16:41.096Z,3.10
2022-12-09T19:21:43.185Z,3.20
2022-12-09T19:26:45.233Z,3.10
2022-12-09T19:31:49.426Z,3.00
2022-12-09T19:36:52.598Z,3.00
2022-12-09T19:41:54.299Z,2.90
2022-12-09T19:46:56.055Z,2.80
2022-12-09T19:51:59.780Z,2.80
2022-12-09T19:57:01.532Z,2.80
2022-12-09T20:02:03.428Z,2.80
2022-12-09T20:07:08.161Z,2.80
2022-12-09T20:12:10.159Z,2.80
2022-12-09T20:17:11.899Z,2.60
2022-12-09T20:22:13.630Z,2.80
2022-12-09T20:27:15.276Z,2.60
2022-12-09T20:32:16.953Z,2.60
2022-12-09T20:37:18.657Z,2.60
2022-12-09T20:42:20.324Z,2.70
2022-12-09T20:47:22.055Z,2.80
2022-12-09T20:52:24.593Z,2.90
2022-12-09T20:57:26.281Z,2.70
2022-12-09T21:02:28.065Z,2.70
2022-12-09T21:07:29.798Z,2.60
2022-12-09T21:12:31.480Z,2.50
2022-12-09T21:17:33.182Z,2.70
2022-12-09T21:22:35.328Z,2.60
2022-12-09T21:27:37.067Z,2.60
2022-12-09T21:32:39.420Z,2.50
2022-12-09T21:37:41.170Z,2.30
2022-12-09T21:42:42.870Z,2.30
2022-12-09T21:47:45.787Z,2.40
2022-12-09T21:52:47.474Z,2.40
2022-12-09T21:57:49.185Z,2.50
2022-12-09T22:02:54.427Z,2.40
2022-12-09T22:07:56.186Z,2.50
2022-12-09T22:12:57.909Z,2.50
2022-12-09T22:17:59.653Z,2.60
2022-12-09T22:23:01.729Z,2.60
2022-12-09T22:28:03.662Z,2.40
2022-12-09T22:33:05.363Z,2.40
2022-12-09T22:38:13.002Z,2.30
2022-12-09T22:43:16.355Z,2.40
2022-12-09T22:48:18.034Z,2.50
2022-12-09T22:53:19.752Z,2.60
2022-12-09T22:58:21.464Z,2.70
2022-12-09T23:03:23.497Z,2.60
2022-12-09T23:08:25.242Z,2.50
2022-12-09T23:13:27.093Z,2.40
2022-12-09T23:18:33.487Z,2.10
2022-12-09T23:23:35.165Z,2.30
2022-12-09T23:28:38.308Z,2.20
2022-12-09T23:33:41.802Z,2.20
2022-12-09T23:38:43.813Z,2.20
2022-12-09T23:43:47.171Z,2.20
2022-12-09T23:48:51.020Z,2.20
2022-12-09T23:53:55.448Z,2.20
2022-12-09T23:59:00.114Z,2.20
